Nautilus — OUYX2 — position and weather

sailwx.info

Track history (hours):
 
Tides and Currents Weather Stations Pressure Air Temp Water Temp Dewpoint Dewpoint Depression Visibility Wind Speed Wind Dir Waves Ship Positions

Nautilus

Last reported at 2015-Jan-31 02:23 UTC. Time now 2015-Jan-31 13:08 UTC.
Position N 55°31' E 015°00'.

Length 120 m; draft 6.7 m.

Type: Ship. MMSI: 219425000.

Date/timePositionNaut miles runAvg speedWind from/ knotsBaromVisibWave heightAir tempDewpointWater temp
2015-Jan-31 02:23N 55°31' E 015°00'1012.7
2015-Jan-31 01:33N 55°26' E 014°44'1312.6
2015-Jan-31 00:33N 55°16' E 014°30'1212.3
2015-Jan-30 23:33N 55°09' E 014°12'2512.0
2015-Jan-30 21:25N 55°11' E 013°28'1112.1
2015-Jan-30 20:31N 55°12' E 013°09'1212.4
2015-Jan-30 19:33N 55°15' E 012°49'10 9.8
2015-Jan-30 18:33N 55°23' E 012°39'1211.7
2015-Jan-30 17:33N 55°35' E 012°42'1110.8
2015-Jan-30 16:33N 55°46' E 012°41'1211.8
2015-Jan-30 15:33N 55°58' E 012°40'1010.3
2015-Jan-30 14:33N 56°07' E 012°31'1111.1
2015-Jan-30 13:33N 56°17' E 012°22'1212.3
2015-Jan-30 12:33N 56°29' E 012°17'1312.6
2015-Jan-30 11:33N 56°41' E 012°10'1212.3
2015-Jan-30 10:33N 56°53' E 012°05'1212.4
2015-Jan-30 09:33N 57°04' E 011°58'1211.7
2015-Jan-30 08:33N 57°16' E 011°51'1111.5
2015-Jan-30 07:33N 57°26' E 011°43'1110.5
2015-Jan-30 06:33N 57°36' E 011°39'9 8.5
2015-Jan-30 05:33N 57°41' E 011°52'0 0.0
2015-Jan-30 04:31N 57°41' E 011°52'0 0.0
2015-Jan-30 03:31N 57°41' E 011°52'0 0.0
2015-Jan-30 02:31N 57°41' E 011°52'0 0.0
2015-Jan-30 01:31N 57°41' E 011°52'0 0.0
2015-Jan-30 00:31N 57°41' E 011°52'0 0.0
2015-Jan-29 23:31N 57°41' E 011°52'0 0.0
2015-Jan-29 22:28N 57°41' E 011°52'0 0.0
2015-Jan-29 21:31N 57°41' E 011°52'0 0.0
2015-Jan-29 20:31N 57°41' E 011°52'0 0.0
2015-Jan-29 19:31N 57°41' E 011°52'0 0.0
2015-Jan-29 18:31N 57°41' E 011°52'0 0.0
2015-Jan-29 17:31N 57°41' E 011°52'0 0.0
2015-Jan-29 16:31N 57°41' E 011°52'0 0.0
2015-Jan-29 15:31N 57°41' E 011°52'0 0.0
2015-Jan-29 14:31N 57°41' E 011°52'0 0.0
2015-Jan-29 13:31N 57°41' E 011°52'5 4.9
2015-Jan-29 12:33N 57°39' E 011°44'9 8.8
2015-Jan-29 11:33N 57°41' E 011°28'1211.9
2015-Jan-29 10:33N 57°53' E 011°20'1212.0
2015-Jan-29 09:33N 58°04' E 011°11'1111.2
2015-Jan-29 08:34N 58°14' E 011°02'1010.4
2015-Jan-29 07:34N 58°24' E 010°56'1110.7
2015-Jan-29 06:33N 58°34' E 010°50'10 9.9
2015-Jan-29 05:34N 58°43' E 010°45'2311.6
2015-Jan-29 03:33N 59°06' E 010°33'1212.4
2015-Jan-29 02:34N 59°18' E 010°35'1313.1
2015-Jan-29 01:33N 59°31' E 010°35'2211.2
2015-Jan-28 23:33N 59°53' E 010°45'0 0.1
2015-Jan-28 22:23N 59°53' E 010°46'0 0.0
2015-Jan-28 21:32N 59°53' E 010°46'0 0.0
2015-Jan-28 20:23N 59°53' E 010°46'0 0.0
2015-Jan-28 19:23N 59°53' E 010°46'0 0.0
2015-Jan-28 18:26N 59°53' E 010°46'0 0.0
2015-Jan-28 17:26N 59°53' E 010°46'0 0.0
2015-Jan-28 16:26N 59°53' E 010°46'0 0.0
2015-Jan-28 15:29N 59°53' E 010°46'0 0.0
2015-Jan-28 14:29N 59°53' E 010°46'0 0.0
2015-Jan-28 13:29N 59°53' E 010°46'0 0.0
2015-Jan-28 12:32N 59°53' E 010°46'0 0.0
2015-Jan-28 11:32N 59°53' E 010°46'0 0.0
2015-Jan-28 10:32N 59°53' E 010°46'0 0.0
2015-Jan-28 09:20N 59°53' E 010°46'1 0.6
2015-Jan-28 08:27N 59°53' E 010°45'0 0.0
2015-Jan-28 07:27N 59°53' E 010°45'0 0.1
2015-Jan-28 06:27N 59°53' E 010°45'0 0.1
2015-Jan-28 05:30N 59°53' E 010°45'0 0.0
2015-Jan-28 04:30N 59°53' E 010°45'0 0.0
2015-Jan-28 03:30N 59°53' E 010°45'0 0.0
2015-Jan-28 02:30N 59°53' E 010°45'0 0.0
2015-Jan-28 01:33N 59°53' E 010°45'0 0.0
2015-Jan-28 00:33N 59°53' E 010°45'0 0.0
2015-Jan-27 23:33N 59°53' E 010°45'0 0.0
2015-Jan-27 22:33N 59°53' E 010°45'0 0.0
2015-Jan-27 21:33N 59°53' E 010°45'0 0.0
2015-Jan-27 20:33N 59°53' E 010°45'0 0.0
2015-Jan-27 19:24N 59°53' E 010°45'0 0.0
2015-Jan-27 18:24N 59°53' E 010°45'0 0.0
2015-Jan-27 17:24N 59°53' E 010°45'0 0.0
2015-Jan-27 16:24N 59°53' E 010°45'0 0.0
2015-Jan-27 15:24N 59°53' E 010°45'0 0.1
2015-Jan-27 14:30N 59°53' E 010°45'16 7.9
2015-Jan-27 12:31N 59°38' E 010°38'1212.9
2015-Jan-27 11:34N 59°25' E 010°34'1313.3
2015-Jan-27 10:33N 59°12' E 010°38'1111.4
2015-Jan-27 09:33N 59°01' E 010°36'1312.7
2015-Jan-27 08:33N 58°49' E 010°43'1313.2
2015-Jan-27 07:33N 58°36' E 010°50'1313.3
2015-Jan-27 06:33N 58°23' E 010°57'1313.1
2015-Jan-27 05:33N 58°11' E 011°03'1212.2
2015-Jan-27 04:34N 57°59' E 011°09'1111.2
2015-Jan-27 03:34N 57°48' E 011°15'1110.9
2015-Jan-27 02:34N 57°38' E 011°20'1111.0
2015-Jan-27 01:34N 57°27' E 011°26'1111.2
2015-Jan-27 00:34N 57°17' E 011°33'1111.4
2015-Jan-26 23:34N 57°06' E 011°40'1211.6
2015-Jan-26 22:33N 56°55' E 011°47'1111.1
2015-Jan-26 21:33N 56°44' E 011°52'1212.1
2015-Jan-26 20:33N 56°34' E 011°41'  
2015-Jan-23 13:33N 56°35' E 011°42'1211.7
2015-Jan-23 12:33N 56°46' E 011°52'1211.6
2015-Jan-23 11:33N 56°57' E 011°44'1212.1
2015-Jan-23 10:33N 57°08' E 011°36'1212.3
2015-Jan-23 09:33N 57°20' E 011°29'1212.0
2015-Jan-23 08:33N 57°31' E 011°23'1212.0
2015-Jan-23 07:33N 57°43' E 011°20'1211.8
2015-Jan-23 06:33N 57°55' E 011°17'1111.2
2015-Jan-23 05:33N 58°06' E 011°14'1010.5
2015-Jan-23 04:33N 58°16' E 011°16'7 7.0
2015-Jan-23 03:33N 58°21' E 011°26'0 0.0
2015-Jan-23 02:33N 58°21' E 011°26'0 0.0
2015-Jan-23 01:33N 58°21' E 011°26'0 0.0
2015-Jan-23 00:33N 58°21' E 011°26'0 0.0
2015-Jan-22 23:33N 58°21' E 011°26'0 0.0
2015-Jan-22 22:33N 58°21' E 011°26'0 0.0
2015-Jan-22 21:33N 58°21' E 011°26'0 0.0
2015-Jan-22 20:33N 58°21' E 011°26'0 0.0
2015-Jan-22 19:33N 58°21' E 011°26'0 0.0
2015-Jan-22 18:32N 58°21' E 011°26'0 0.0
2015-Jan-22 17:33N 58°21' E 011°26'0 0.0
2015-Jan-22 16:33N 58°21' E 011°26'0 0.0
2015-Jan-22 15:33N 58°21' E 011°26'0 0.0
2015-Jan-22 14:33N 58°21' E 011°26'0 0.0
2015-Jan-22 13:33N 58°21' E 011°26'0 0.0
2015-Jan-22 12:33N 58°21' E 011°26'0 0.0
2015-Jan-22 11:33N 58°21' E 011°26'0 0.0
2015-Jan-22 10:33N 58°21' E 011°26'4 4.1
2015-Jan-22 09:33N 58°19' E 011°20'8 8.4
2015-Jan-22 08:33N 58°11' E 011°11'0 0.0
2015-Jan-22 07:33N 58°11' E 011°11'0 0.0
2015-Jan-22 06:33N 58°11' E 011°11'0 0.0
2015-Jan-22 05:33N 58°11' E 011°11'0 0.0
2015-Jan-22 04:33N 58°11' E 011°11'0 0.0
2015-Jan-22 03:33N 58°11' E 011°11'0 0.0
2015-Jan-22 02:30N 58°11' E 011°11'0 0.0
2015-Jan-22 01:33N 58°11' E 011°11'0 0.0
2015-Jan-22 00:33N 58°11' E 011°11'0 0.0
2015-Jan-21 23:33N 58°11' E 011°11'0 0.0
2015-Jan-21 22:48N 58°11' E 011°11'0 0.1
2015-Jan-21 22:45N 58°11' E 011°11'0 0.0
2015-Jan-21 22:33N 58°11' E 011°11'0 0.0
2015-Jan-21 21:33N 58°11' E 011°11'0 0.0
2015-Jan-21 20:33N 58°11' E 011°11'0 0.0
2015-Jan-21 19:33N 58°11' E 011°11'0 0.0
2015-Jan-21 18:33N 58°11' E 011°11'0 0.0
2015-Jan-21 17:33N 58°11' E 011°11'0 0.0
2015-Jan-21 16:33N 58°11' E 011°11'0 0.0
2015-Jan-21 15:33N 58°11' E 011°11'0 0.0
2015-Jan-21 14:33N 58°11' E 011°11'0 0.0
2015-Jan-21 13:33N 58°11' E 011°11'0 0.0
2015-Jan-21 12:33N 58°11' E 011°11'0 0.0
2015-Jan-21 11:33N 58°11' E 011°11'0 0.0
2015-Jan-21 10:33N 58°11' E 011°11'0 0.0
2015-Jan-21 09:33N 58°11' E 011°11'9 8.7
2015-Jan-21 08:33N 58°03' E 011°15'1413.8
2015-Jan-21 07:33N 57°49' E 011°19'1312.8
2015-Jan-21 06:33N 57°37' E 011°23'1313.2
2015-Jan-21 05:33N 57°26' E 011°37'1413.7
2015-Jan-21 04:33N 57°15' E 011°52'1313.2
2015-Jan-21 03:33N 57°02' E 011°60'1413.7
2015-Jan-21 02:33N 56°49' E 012°07'  
Track history (hours):
 
Tides and Currents Weather Stations Pressure Air Temp Water Temp Dewpoint Dewpoint Depression Visibility Wind Speed Wind Dir Waves Ship Positions

Nautilus

Last reported at 2015-Jan-31 02:23 UTC. Time now 2015-Jan-31 13:08 UTC.
Position N 55°31' E 015°00'.

Length 120 m; draft 6.7 m.

Type: Ship. MMSI: 219425000.

Date/timePositionNaut miles runAvg speedWind from/ knotsBaromVisibWave heightAir tempDewpointWater temp
2015-Jan-31 02:23N 55°31' E 015°00'1012.7
2015-Jan-31 01:33N 55°26' E 014°44'1312.6
2015-Jan-31 00:33N 55°16' E 014°30'1212.3
2015-Jan-30 23:33N 55°09' E 014°12'2512.0
2015-Jan-30 21:25N 55°11' E 013°28'1112.1
2015-Jan-30 20:31N 55°12' E 013°09'1212.4
2015-Jan-30 19:33N 55°15' E 012°49'10 9.8
2015-Jan-30 18:33N 55°23' E 012°39'1211.7
2015-Jan-30 17:33N 55°35' E 012°42'1110.8
2015-Jan-30 16:33N 55°46' E 012°41'1211.8
2015-Jan-30 15:33N 55°58' E 012°40'1010.3
2015-Jan-30 14:33N 56°07' E 012°31'1111.1
2015-Jan-30 13:33N 56°17' E 012°22'1212.3
2015-Jan-30 12:33N 56°29' E 012°17'1312.6
2015-Jan-30 11:33N 56°41' E 012°10'1212.3
2015-Jan-30 10:33N 56°53' E 012°05'1212.4
2015-Jan-30 09:33N 57°04' E 011°58'1211.7
2015-Jan-30 08:33N 57°16' E 011°51'1111.5
2015-Jan-30 07:33N 57°26' E 011°43'1110.5
2015-Jan-30 06:33N 57°36' E 011°39'9 8.5
2015-Jan-30 05:33N 57°41' E 011°52'0 0.0
2015-Jan-30 04:31N 57°41' E 011°52'0 0.0
2015-Jan-30 03:31N 57°41' E 011°52'0 0.0
2015-Jan-30 02:31N 57°41' E 011°52'0 0.0
2015-Jan-30 01:31N 57°41' E 011°52'0 0.0
2015-Jan-30 00:31N 57°41' E 011°52'0 0.0
2015-Jan-29 23:31N 57°41' E 011°52'0 0.0
2015-Jan-29 22:28N 57°41' E 011°52'0 0.0
2015-Jan-29 21:31N 57°41' E 011°52'0 0.0
2015-Jan-29 20:31N 57°41' E 011°52'0 0.0
2015-Jan-29 19:31N 57°41' E 011°52'0 0.0
2015-Jan-29 18:31N 57°41' E 011°52'0 0.0
2015-Jan-29 17:31N 57°41' E 011°52'0 0.0
2015-Jan-29 16:31N 57°41' E 011°52'0 0.0
2015-Jan-29 15:31N 57°41' E 011°52'0 0.0
2015-Jan-29 14:31N 57°41' E 011°52'0 0.0
2015-Jan-29 13:31N 57°41' E 011°52'5 4.9
2015-Jan-29 12:33N 57°39' E 011°44'9 8.8
2015-Jan-29 11:33N 57°41' E 011°28'1211.9
2015-Jan-29 10:33N 57°53' E 011°20'1212.0
2015-Jan-29 09:33N 58°04' E 011°11'1111.2
2015-Jan-29 08:34N 58°14' E 011°02'1010.4
2015-Jan-29 07:34N 58°24' E 010°56'1110.7
2015-Jan-29 06:33N 58°34' E 010°50'10 9.9
2015-Jan-29 05:34N 58°43' E 010°45'2311.6
2015-Jan-29 03:33N 59°06' E 010°33'1212.4
2015-Jan-29 02:34N 59°18' E 010°35'1313.1
2015-Jan-29 01:33N 59°31' E 010°35'2211.2
2015-Jan-28 23:33N 59°53' E 010°45'0 0.1
2015-Jan-28 22:23N 59°53' E 010°46'0 0.0
2015-Jan-28 21:32N 59°53' E 010°46'0 0.0
2015-Jan-28 20:23N 59°53' E 010°46'0 0.0
2015-Jan-28 19:23N 59°53' E 010°46'0 0.0
2015-Jan-28 18:26N 59°53' E 010°46'0 0.0
2015-Jan-28 17:26N 59°53' E 010°46'0 0.0
2015-Jan-28 16:26N 59°53' E 010°46'0 0.0
2015-Jan-28 15:29N 59°53' E 010°46'0 0.0
2015-Jan-28 14:29N 59°53' E 010°46'0 0.0
2015-Jan-28 13:29N 59°53' E 010°46'0 0.0
2015-Jan-28 12:32N 59°53' E 010°46'0 0.0
2015-Jan-28 11:32N 59°53' E 010°46'0 0.0
2015-Jan-28 10:32N 59°53' E 010°46'0 0.0
2015-Jan-28 09:20N 59°53' E 010°46'1 0.6
2015-Jan-28 08:27N 59°53' E 010°45'0 0.0
2015-Jan-28 07:27N 59°53' E 010°45'0 0.1
2015-Jan-28 06:27N 59°53' E 010°45'0 0.1
2015-Jan-28 05:30N 59°53' E 010°45'0 0.0
2015-Jan-28 04:30N 59°53' E 010°45'0 0.0
2015-Jan-28 03:30N 59°53' E 010°45'0 0.0
2015-Jan-28 02:30N 59°53' E 010°45'0 0.0
2015-Jan-28 01:33N 59°53' E 010°45'0 0.0
2015-Jan-28 00:33N 59°53' E 010°45'0 0.0
2015-Jan-27 23:33N 59°53' E 010°45'0 0.0
2015-Jan-27 22:33N 59°53' E 010°45'0 0.0
2015-Jan-27 21:33N 59°53' E 010°45'0 0.0
2015-Jan-27 20:33N 59°53' E 010°45'0 0.0
2015-Jan-27 19:24N 59°53' E 010°45'0 0.0
2015-Jan-27 18:24N 59°53' E 010°45'0 0.0
2015-Jan-27 17:24N 59°53' E 010°45'0 0.0
2015-Jan-27 16:24N 59°53' E 010°45'0 0.0
2015-Jan-27 15:24N 59°53' E 010°45'0 0.1
2015-Jan-27 14:30N 59°53' E 010°45'16 7.9
2015-Jan-27 12:31N 59°38' E 010°38'1212.9
2015-Jan-27 11:34N 59°25' E 010°34'1313.3
2015-Jan-27 10:33N 59°12' E 010°38'1111.4
2015-Jan-27 09:33N 59°01' E 010°36'1312.7
2015-Jan-27 08:33N 58°49' E 010°43'1313.2
2015-Jan-27 07:33N 58°36' E 010°50'1313.3
2015-Jan-27 06:33N 58°23' E 010°57'1313.1
2015-Jan-27 05:33N 58°11' E 011°03'1212.2
2015-Jan-27 04:34N 57°59' E 011°09'1111.2
2015-Jan-27 03:34N 57°48' E 011°15'1110.9
2015-Jan-27 02:34N 57°38' E 011°20'1111.0
2015-Jan-27 01:34N 57°27' E 011°26'1111.2
2015-Jan-27 00:34N 57°17' E 011°33'1111.4
2015-Jan-26 23:34N 57°06' E 011°40'1211.6
2015-Jan-26 22:33N 56°55' E 011°47'1111.1
2015-Jan-26 21:33N 56°44' E 011°52'1212.1
2015-Jan-26 20:33N 56°34' E 011°41'  
2015-Jan-23 13:33N 56°35' E 011°42'1211.7
2015-Jan-23 12:33N 56°46' E 011°52'1211.6
2015-Jan-23 11:33N 56°57' E 011°44'1212.1
2015-Jan-23 10:33N 57°08' E 011°36'1212.3
2015-Jan-23 09:33N 57°20' E 011°29'1212.0
2015-Jan-23 08:33N 57°31' E 011°23'1212.0
2015-Jan-23 07:33N 57°43' E 011°20'1211.8
2015-Jan-23 06:33N 57°55' E 011°17'1111.2
2015-Jan-23 05:33N 58°06' E 011°14'1010.5
2015-Jan-23 04:33N 58°16' E 011°16'7 7.0
2015-Jan-23 03:33N 58°21' E 011°26'0 0.0
2015-Jan-23 02:33N 58°21' E 011°26'0 0.0
2015-Jan-23 01:33N 58°21' E 011°26'0 0.0
2015-Jan-23 00:33N 58°21' E 011°26'0 0.0
2015-Jan-22 23:33N 58°21' E 011°26'0 0.0
2015-Jan-22 22:33N 58°21' E 011°26'0 0.0
2015-Jan-22 21:33N 58°21' E 011°26'0 0.0
2015-Jan-22 20:33N 58°21' E 011°26'0 0.0
2015-Jan-22 19:33N 58°21' E 011°26'0 0.0
2015-Jan-22 18:32N 58°21' E 011°26'0 0.0
2015-Jan-22 17:33N 58°21' E 011°26'0 0.0
2015-Jan-22 16:33N 58°21' E 011°26'0 0.0
2015-Jan-22 15:33N 58°21' E 011°26'0 0.0
2015-Jan-22 14:33N 58°21' E 011°26'0 0.0
2015-Jan-22 13:33N 58°21' E 011°26'0 0.0
2015-Jan-22 12:33N 58°21' E 011°26'0 0.0
2015-Jan-22 11:33N 58°21' E 011°26'0 0.0
2015-Jan-22 10:33N 58°21' E 011°26'4 4.1
2015-Jan-22 09:33N 58°19' E 011°20'8 8.4
2015-Jan-22 08:33N 58°11' E 011°11'0 0.0
2015-Jan-22 07:33N 58°11' E 011°11'0 0.0
2015-Jan-22 06:33N 58°11' E 011°11'0 0.0
2015-Jan-22 05:33N 58°11' E 011°11'0 0.0
2015-Jan-22 04:33N 58°11' E 011°11'0 0.0
2015-Jan-22 03:33N 58°11' E 011°11'0 0.0
2015-Jan-22 02:30N 58°11' E 011°11'0 0.0
2015-Jan-22 01:33N 58°11' E 011°11'0 0.0
2015-Jan-22 00:33N 58°11' E 011°11'0 0.0
2015-Jan-21 23:33N 58°11' E 011°11'0 0.0
2015-Jan-21 22:48N 58°11' E 011°11'0 0.1
2015-Jan-21 22:45N 58°11' E 011°11'0 0.0
2015-Jan-21 22:33N 58°11' E 011°11'0 0.0
2015-Jan-21 21:33N 58°11' E 011°11'0 0.0
2015-Jan-21 20:33N 58°11' E 011°11'0 0.0
2015-Jan-21 19:33N 58°11' E 011°11'0 0.0
2015-Jan-21 18:33N 58°11' E 011°11'0 0.0
2015-Jan-21 17:33N 58°11' E 011°11'0 0.0
2015-Jan-21 16:33N 58°11' E 011°11'0 0.0
2015-Jan-21 15:33N 58°11' E 011°11'0 0.0
2015-Jan-21 14:33N 58°11' E 011°11'0 0.0
2015-Jan-21 13:33N 58°11' E 011°11'0 0.0
2015-Jan-21 12:33N 58°11' E 011°11'0 0.0
2015-Jan-21 11:33N 58°11' E 011°11'0 0.0
2015-Jan-21 10:33N 58°11' E 011°11'0 0.0
2015-Jan-21 09:33N 58°11' E 011°11'9 8.7
2015-Jan-21 08:33N 58°03' E 011°15'1413.8
2015-Jan-21 07:33N 57°49' E 011°19'1312.8
2015-Jan-21 06:33N 57°37' E 011°23'1313.2
2015-Jan-21 05:33N 57°26' E 011°37'1413.7
2015-Jan-21 04:33N 57°15' E 011°52'1313.2
2015-Jan-21 03:33N 57°02' E 011°60'1413.7
2015-Jan-21 02:33N 56°49' E 012°07'  

Dump ship's entire track history